sensor_id;sensor_type;location;lat;lon;timestamp;P1;durP1;ratioP1;P2;durP2;ratioP2
5819;SDS011;2936;47.348;9.640;2023-07-29T00:00:48;4.80;;;4.30;;
5819;SDS011;2936;47.348;9.640;2023-07-29T00:03:16;5.83;;;4.10;;
5819;SDS011;2936;47.348;9.640;2023-07-29T00:05:43;5.33;;;4.00;;
5819;SDS011;2936;47.348;9.640;2023-07-29T00:08:10;6.43;;;4.00;;
5819;SDS011;2936;47.348;9.640;2023-07-29T00:10:38;4.47;;;4.07;;
5819;SDS011;2936;47.348;9.640;2023-07-29T00:13:05;4.63;;;3.77;;
5819;SDS011;2936;47.348;9.640;2023-07-29T00:15:34;4.20;;;3.80;;
5819;SDS011;2936;47.348;9.640;2023-07-29T00:18:01;4.27;;;3.87;;
5819;SDS011;2936;47.348;9.640;2023-07-29T00:20:29;11.23;;;3.80;;
5819;SDS011;2936;47.348;9.640;2023-07-29T00:22:56;3.80;;;3.60;;
5819;SDS011;2936;47.348;9.640;2023-07-29T00:25:24;4.57;;;3.97;;
5819;SDS011;2936;47.348;9.640;2023-07-29T00:27:51;3.37;;;3.10;;
5819;SDS011;2936;47.348;9.640;2023-07-29T00:30:18;4.93;;;3.83;;
5819;SDS011;2936;47.348;9.640;2023-07-29T00:32:47;4.57;;;3.67;;
5819;SDS011;2936;47.348;9.640;2023-07-29T00:35:14;3.53;;;3.33;;
5819;SDS011;2936;47.348;9.640;2023-07-29T00:37:42;3.50;;;3.20;;
5819;SDS011;2936;47.348;9.640;2023-07-29T00:40:12;6.13;;;3.23;;
5819;SDS011;2936;47.348;9.640;2023-07-29T00:42:41;4.07;;;3.67;;
5819;SDS011;2936;47.348;9.640;2023-07-29T00:45:09;4.60;;;4.20;;
5819;SDS011;2936;47.348;9.640;2023-07-29T00:47:36;4.07;;;3.83;;
5819;SDS011;2936;47.348;9.640;2023-07-29T00:50:05;7.10;;;4.50;;
5819;SDS011;2936;47.348;9.640;2023-07-29T00:52:33;5.00;;;4.70;;
5819;SDS011;2936;47.348;9.640;2023-07-29T00:55:01;8.10;;;5.93;;
5819;SDS011;2936;47.348;9.640;2023-07-29T00:57:28;5.90;;;5.33;;
5819;SDS011;2936;47.348;9.640;2023-07-29T00:59:56;6.73;;;5.00;;
5819;SDS011;2936;47.348;9.640;2023-07-29T01:02:23;4.43;;;3.97;;
5819;SDS011;2936;47.348;9.640;2023-07-29T01:04:51;5.60;;;3.93;;
5819;SDS011;2936;47.348;9.640;2023-07-29T01:07:21;4.20;;;3.93;;
5819;SDS011;2936;47.348;9.640;2023-07-29T01:09:52;4.80;;;3.30;;
5819;SDS011;2936;47.348;9.640;2023-07-29T01:12:24;4.70;;;4.30;;
5819;SDS011;2936;47.348;9.640;2023-07-29T01:14:55;4.60;;;3.70;;
5819;SDS011;2936;47.348;9.640;2023-07-29T01:17:25;4.50;;;3.40;;
5819;SDS011;2936;47.348;9.640;2023-07-29T01:19:59;4.93;;;4.07;;
5819;SDS011;2936;47.348;9.640;2023-07-29T01:22:29;3.90;;;3.60;;
5819;SDS011;2936;47.348;9.640;2023-07-29T01:24:59;3.47;;;3.27;;
5819;SDS011;2936;47.348;9.640;2023-07-29T01:27:26;3.97;;;3.77;;
5819;SDS011;2936;47.348;9.640;2023-07-29T01:29:54;4.37;;;4.07;;
5819;SDS011;2936;47.348;9.640;2023-07-29T01:32:37;4.37;;;3.73;;
5819;SDS011;2936;47.348;9.640;2023-07-29T01:35:10;3.70;;;3.43;;
5819;SDS011;2936;47.348;9.640;2023-07-29T01:37:39;4.10;;;3.80;;
5819;SDS011;2936;47.348;9.640;2023-07-29T01:40:09;6.17;;;3.67;;
5819;SDS011;2936;47.348;9.640;2023-07-29T01:42:37;3.97;;;3.60;;
5819;SDS011;2936;47.348;9.640;2023-07-29T01:45:05;4.57;;;4.17;;
5819;SDS011;2936;47.348;9.640;2023-07-29T01:47:32;4.37;;;4.00;;
5819;SDS011;2936;47.348;9.640;2023-07-29T01:49:59;6.83;;;3.57;;
5819;SDS011;2936;47.348;9.640;2023-07-29T01:52:28;4.00;;;3.70;;
5819;SDS011;2936;47.348;9.640;2023-07-29T01:54:56;3.70;;;3.40;;
5819;SDS011;2936;47.348;9.640;2023-07-29T01:57:24;4.17;;;3.70;;
5819;SDS011;2936;47.348;9.640;2023-07-29T01:59:52;4.20;;;3.90;;
5819;SDS011;2936;47.348;9.640;2023-07-29T02:02:19;5.30;;;4.67;;
5819;SDS011;2936;47.348;9.640;2023-07-29T02:04:46;4.47;;;3.83;;
5819;SDS011;2936;47.348;9.640;2023-07-29T02:07:16;5.27;;;3.80;;
5819;SDS011;2936;47.348;9.640;2023-07-29T02:09:44;3.93;;;3.63;;
5819;SDS011;2936;47.348;9.640;2023-07-29T02:12:11;4.53;;;4.20;;
5819;SDS011;2936;47.348;9.640;2023-07-29T02:14:40;4.17;;;3.87;;
5819;SDS011;2936;47.348;9.640;2023-07-29T02:17:07;6.67;;;3.60;;
5819;SDS011;2936;47.348;9.640;2023-07-29T02:19:34;4.27;;;3.80;;
5819;SDS011;2936;47.348;9.640;2023-07-29T02:22:02;4.50;;;4.20;;
5819;SDS011;2936;47.348;9.640;2023-07-29T02:24:29;4.17;;;3.87;;
5819;SDS011;2936;47.348;9.640;2023-07-29T02:26:57;4.23;;;3.90;;
5819;SDS011;2936;47.348;9.640;2023-07-29T02:29:24;4.50;;;4.20;;
5819;SDS011;2936;47.348;9.640;2023-07-29T02:31:53;6.70;;;3.70;;
5819;SDS011;2936;47.348;9.640;2023-07-29T02:34:20;3.80;;;3.50;;
5819;SDS011;2936;47.348;9.640;2023-07-29T02:36:47;4.63;;;4.30;;
5819;SDS011;2936;47.348;9.640;2023-07-29T02:39:15;4.20;;;3.90;;
5819;SDS011;2936;47.348;9.640;2023-07-29T02:41:42;3.70;;;3.40;;
5819;SDS011;2936;47.348;9.640;2023-07-29T02:44:09;4.37;;;3.97;;
5819;SDS011;2936;47.348;9.640;2023-07-29T02:46:37;4.47;;;4.07;;
5819;SDS011;2936;47.348;9.640;2023-07-29T02:49:05;4.50;;;4.10;;
5819;SDS011;2936;47.348;9.640;2023-07-29T02:51:33;4.40;;;4.10;;
5819;SDS011;2936;47.348;9.640;2023-07-29T02:54:00;4.23;;;3.93;;
5819;SDS011;2936;47.348;9.640;2023-07-29T02:56:27;4.83;;;4.43;;
5819;SDS011;2936;47.348;9.640;2023-07-29T02:58:55;4.67;;;4.13;;
5819;SDS011;2936;47.348;9.640;2023-07-29T03:01:23;4.33;;;4.03;;
5819;SDS011;2936;47.348;9.640;2023-07-29T03:03:51;4.50;;;4.20;;
5819;SDS011;2936;47.348;9.640;2023-07-29T03:06:19;5.00;;;4.50;;
5819;SDS011;2936;47.348;9.640;2023-07-29T03:08:47;4.30;;;4.00;;
5819;SDS011;2936;47.348;9.640;2023-07-29T03:11:15;4.40;;;4.10;;
5819;SDS011;2936;47.348;9.640;2023-07-29T03:13:42;3.53;;;3.33;;
5819;SDS011;2936;47.348;9.640;2023-07-29T03:16:10;5.17;;;4.67;;
5819;SDS011;2936;47.348;9.640;2023-07-29T03:18:38;6.63;;;4.80;;
5819;SDS011;2936;47.348;9.640;2023-07-29T03:21:05;4.23;;;4.00;;
5819;SDS011;2936;47.348;9.640;2023-07-29T03:23:34;4.63;;;4.23;;
5819;SDS011;2936;47.348;9.640;2023-07-29T03:26:02;4.13;;;3.77;;
5819;SDS011;2936;47.348;9.640;2023-07-29T03:28:35;8.00;;;4.00;;
5819;SDS011;2936;47.348;9.640;2023-07-29T03:31:02;5.90;;;3.90;;
5819;SDS011;2936;47.348;9.640;2023-07-29T03:33:30;5.07;;;4.57;;
5819;SDS011;2936;47.348;9.640;2023-07-29T03:35:57;4.30;;;3.90;;
5819;SDS011;2936;47.348;9.640;2023-07-29T03:38:24;5.20;;;4.70;;
5819;SDS011;2936;47.348;9.640;2023-07-29T03:40:54;5.37;;;4.97;;
5819;SDS011;2936;47.348;9.640;2023-07-29T03:43:21;8.03;;;4.20;;
5819;SDS011;2936;47.348;9.640;2023-07-29T03:45:48;4.93;;;4.53;;
5819;SDS011;2936;47.348;9.640;2023-07-29T03:48:15;5.80;;;4.27;;
5819;SDS011;2936;47.348;9.640;2023-07-29T03:50:43;5.03;;;4.63;;
5819;SDS011;2936;47.348;9.640;2023-07-29T03:53:10;6.27;;;4.63;;
5819;SDS011;2936;47.348;9.640;2023-07-29T03:55:37;4.77;;;4.37;;
5819;SDS011;2936;47.348;9.640;2023-07-29T03:58:06;4.93;;;4.43;;
5819;SDS011;2936;47.348;9.640;2023-07-29T04:00:33;4.93;;;4.53;;
5819;SDS011;2936;47.348;9.640;2023-07-29T04:03:01;4.83;;;4.43;;
5819;SDS011;2936;47.348;9.640;2023-07-29T04:05:28;5.90;;;5.00;;
5819;SDS011;2936;47.348;9.640;2023-07-29T04:07:55;9.33;;;4.63;;
5819;SDS011;2936;47.348;9.640;2023-07-29T04:10:22;9.40;;;4.60;;
5819;SDS011;2936;47.348;9.640;2023-07-29T04:12:50;4.67;;;4.27;;
5819;SDS011;2936;47.348;9.640;2023-07-29T04:15:18;5.27;;;4.77;;
5819;SDS011;2936;47.348;9.640;2023-07-29T04:17:46;4.90;;;4.40;;
5819;SDS011;2936;47.348;9.640;2023-07-29T04:20:13;6.23;;;4.57;;
5819;SDS011;2936;47.348;9.640;2023-07-29T04:22:40;5.03;;;4.73;;
5819;SDS011;2936;47.348;9.640;2023-07-29T04:25:08;5.17;;;4.47;;
5819;SDS011;2936;47.348;9.640;2023-07-29T04:27:35;4.90;;;4.60;;
5819;SDS011;2936;47.348;9.640;2023-07-29T04:30:03;6.30;;;5.50;;
5819;SDS011;2936;47.348;9.640;2023-07-29T04:32:32;10.57;;;4.90;;
5819;SDS011;2936;47.348;9.640;2023-07-29T04:34:59;7.53;;;4.73;;
5819;SDS011;2936;47.348;9.640;2023-07-29T04:37:26;5.57;;;5.00;;
5819;SDS011;2936;47.348;9.640;2023-07-29T04:39:54;7.40;;;5.47;;
5819;SDS011;2936;47.348;9.640;2023-07-29T04:42:21;6.03;;;5.40;;
5819;SDS011;2936;47.348;9.640;2023-07-29T04:44:48;10.17;;;5.40;;
5819;SDS011;2936;47.348;9.640;2023-07-29T04:47:15;5.73;;;5.30;;
5819;SDS011;2936;47.348;9.640;2023-07-29T04:49:44;5.40;;;4.90;;
5819;SDS011;2936;47.348;9.640;2023-07-29T04:52:12;5.17;;;4.70;;
5819;SDS011;2936;47.348;9.640;2023-07-29T04:54:40;6.00;;;5.00;;
5819;SDS011;2936;47.348;9.640;2023-07-29T04:57:07;7.07;;;4.97;;
5819;SDS011;2936;47.348;9.640;2023-07-29T04:59:34;5.80;;;4.40;;
5819;SDS011;2936;47.348;9.640;2023-07-29T05:02:02;5.90;;;5.30;;
5819;SDS011;2936;47.348;9.640;2023-07-29T05:04:29;6.60;;;5.00;;
5819;SDS011;2936;47.348;9.640;2023-07-29T05:06:58;13.73;;;6.00;;
5819;SDS011;2936;47.348;9.640;2023-07-29T05:09:25;8.23;;;6.03;;
5819;SDS011;2936;47.348;9.640;2023-07-29T05:11:52;10.93;;;5.80;;
5819;SDS011;2936;47.348;9.640;2023-07-29T05:14:20;5.70;;;5.20;;
5819;SDS011;2936;47.348;9.640;2023-07-29T05:16:47;5.80;;;5.20;;
5819;SDS011;2936;47.348;9.640;2023-07-29T05:19:14;6.03;;;5.50;;
5819;SDS011;2936;47.348;9.640;2023-07-29T05:21:43;7.50;;;5.50;;
5819;SDS011;2936;47.348;9.640;2023-07-29T05:24:11;5.30;;;4.90;;
5819;SDS011;2936;47.348;9.640;2023-07-29T05:26:39;5.70;;;5.10;;
5819;SDS011;2936;47.348;9.640;2023-07-29T05:29:06;8.30;;;5.47;;
5819;SDS011;2936;47.348;9.640;2023-07-29T05:31:33;6.07;;;5.47;;
5819;SDS011;2936;47.348;9.640;2023-07-29T05:34:00;6.20;;;5.60;;
5819;SDS011;2936;47.348;9.640;2023-07-29T05:36:28;5.10;;;4.80;;
5819;SDS011;2936;47.348;9.640;2023-07-29T05:38:55;5.77;;;5.30;;
5819;SDS011;2936;47.348;9.640;2023-07-29T05:41:24;5.70;;;5.17;;
5819;SDS011;2936;47.348;9.640;2023-07-29T05:43:53;6.03;;;5.43;;
5819;SDS011;2936;47.348;9.640;2023-07-29T05:46:20;6.60;;;5.90;;
5819;SDS011;2936;47.348;9.640;2023-07-29T05:48:47;5.03;;;4.63;;
5819;SDS011;2936;47.348;9.640;2023-07-29T05:51:15;5.97;;;5.43;;
5819;SDS011;2936;47.348;9.640;2023-07-29T05:53:42;7.03;;;5.43;;
5819;SDS011;2936;47.348;9.640;2023-07-29T05:56:09;9.53;;;5.97;;
5819;SDS011;2936;47.348;9.640;2023-07-29T05:58:38;7.40;;;5.67;;
5819;SDS011;2936;47.348;9.640;2023-07-29T06:01:06;8.40;;;5.87;;
5819;SDS011;2936;47.348;9.640;2023-07-29T06:03:33;5.03;;;4.63;;
5819;SDS011;2936;47.348;9.640;2023-07-29T06:06:00;5.53;;;5.13;;
5819;SDS011;2936;47.348;9.640;2023-07-29T06:08:27;5.53;;;5.03;;
5819;SDS011;2936;47.348;9.640;2023-07-29T06:10:58;5.00;;;4.60;;
5819;SDS011;2936;47.348;9.640;2023-07-29T06:13:25;6.87;;;5.07;;
5819;SDS011;2936;47.348;9.640;2023-07-29T06:15:54;6.03;;;5.43;;
5819;SDS011;2936;47.348;9.640;2023-07-29T06:18:21;15.33;;;5.07;;
5819;SDS011;2936;47.348;9.640;2023-07-29T06:20:48;5.40;;;5.00;;
5819;SDS011;2936;47.348;9.640;2023-07-29T06:23:16;7.40;;;4.70;;
5819;SDS011;2936;47.348;9.640;2023-07-29T06:25:43;6.50;;;5.20;;
5819;SDS011;2936;47.348;9.640;2023-07-29T06:28:10;5.57;;;5.17;;
5819;SDS011;2936;47.348;9.640;2023-07-29T06:30:38;5.00;;;4.60;;
5819;SDS011;2936;47.348;9.640;2023-07-29T06:33:07;4.67;;;4.30;;
5819;SDS011;2936;47.348;9.640;2023-07-29T06:35:34;14.07;;;5.37;;
5819;SDS011;2936;47.348;9.640;2023-07-29T06:38:01;8.17;;;5.33;;
5819;SDS011;2936;47.348;9.640;2023-07-29T06:40:29;4.60;;;4.30;;
5819;SDS011;2936;47.348;9.640;2023-07-29T06:42:56;6.17;;;5.07;;
5819;SDS011;2936;47.348;9.640;2023-07-29T06:45:23;9.17;;;5.10;;
5819;SDS011;2936;47.348;9.640;2023-07-29T06:47:51;8.10;;;5.00;;
5819;SDS011;2936;47.348;9.640;2023-07-29T06:50:19;4.63;;;4.33;;
5819;SDS011;2936;47.348;9.640;2023-07-29T06:52:47;7.53;;;5.80;;
5819;SDS011;2936;47.348;9.640;2023-07-29T06:55:14;10.13;;;5.50;;
5819;SDS011;2936;47.348;9.640;2023-07-29T06:57:41;5.10;;;4.60;;
5819;SDS011;2936;47.348;9.640;2023-07-29T07:00:09;6.03;;;5.50;;
5819;SDS011;2936;47.348;9.640;2023-07-29T07:02:37;5.57;;;5.00;;
5819;SDS011;2936;47.348;9.640;2023-07-29T07:05:05;5.53;;;5.03;;
5819;SDS011;2936;47.348;9.640;2023-07-29T07:07:35;8.20;;;4.77;;
5819;SDS011;2936;47.348;9.640;2023-07-29T07:10:03;5.80;;;5.03;;
5819;SDS011;2936;47.348;9.640;2023-07-29T07:12:30;6.00;;;5.50;;
5819;SDS011;2936;47.348;9.640;2023-07-29T07:14:59;6.93;;;5.83;;
5819;SDS011;2936;47.348;9.640;2023-07-29T07:17:27;7.27;;;5.47;;
5819;SDS011;2936;47.348;9.640;2023-07-29T07:19:54;6.97;;;4.80;;
5819;SDS011;2936;47.348;9.640;2023-07-29T07:22:21;7.00;;;5.70;;
5819;SDS011;2936;47.348;9.640;2023-07-29T07:24:50;6.40;;;5.80;;
5819;SDS011;2936;47.348;9.640;2023-07-29T07:27:17;5.87;;;5.37;;
5819;SDS011;2936;47.348;9.640;2023-07-29T07:29:45;6.63;;;5.63;;
5819;SDS011;2936;47.348;9.640;2023-07-29T07:32:12;5.60;;;5.10;;
5819;SDS011;2936;47.348;9.640;2023-07-29T07:34:39;5.83;;;5.40;;
5819;SDS011;2936;47.348;9.640;2023-07-29T07:37:07;6.27;;;4.90;;
5819;SDS011;2936;47.348;9.640;2023-07-29T07:39:34;5.00;;;4.60;;
5819;SDS011;2936;47.348;9.640;2023-07-29T07:42:03;4.80;;;4.50;;
5819;SDS011;2936;47.348;9.640;2023-07-29T07:44:30;4.73;;;4.20;;
5819;SDS011;2936;47.348;9.640;2023-07-29T07:46:57;4.63;;;4.33;;
5819;SDS011;2936;47.348;9.640;2023-07-29T07:49:25;5.40;;;4.63;;
5819;SDS011;2936;47.348;9.640;2023-07-29T07:51:52;4.37;;;4.17;;
5819;SDS011;2936;47.348;9.640;2023-07-29T07:54:19;7.50;;;4.20;;
5819;SDS011;2936;47.348;9.640;2023-07-29T07:56:47;5.47;;;4.97;;
5819;SDS011;2936;47.348;9.640;2023-07-29T07:59:15;6.80;;;4.90;;
5819;SDS011;2936;47.348;9.640;2023-07-29T08:01:43;4.23;;;3.93;;
5819;SDS011;2936;47.348;9.640;2023-07-29T08:04:10;4.87;;;4.47;;
5819;SDS011;2936;47.348;9.640;2023-07-29T08:06:37;6.23;;;4.93;;
5819;SDS011;2936;47.348;9.640;2023-07-29T08:09:04;5.40;;;4.90;;
5819;SDS011;2936;47.348;9.640;2023-07-29T08:11:32;4.90;;;4.50;;
5819;SDS011;2936;47.348;9.640;2023-07-29T08:13:59;5.80;;;5.10;;
5819;SDS011;2936;47.348;9.640;2023-07-29T08:16:28;7.27;;;4.90;;
5819;SDS011;2936;47.348;9.640;2023-07-29T08:18:55;4.97;;;4.57;;
5819;SDS011;2936;47.348;9.640;2023-07-29T08:21:23;4.73;;;4.40;;
5819;SDS011;2936;47.348;9.640;2023-07-29T08:23:50;7.17;;;5.07;;
5819;SDS011;2936;47.348;9.640;2023-07-29T08:26:17;5.63;;;4.43;;
5819;SDS011;2936;47.348;9.640;2023-07-29T08:28:45;4.90;;;4.50;;
5819;SDS011;2936;47.348;9.640;2023-07-29T08:31:13;6.03;;;5.20;;
5819;SDS011;2936;47.348;9.640;2023-07-29T08:33:43;5.40;;;4.90;;
5819;SDS011;2936;47.348;9.640;2023-07-29T08:36:13;5.63;;;4.80;;
5819;SDS011;2936;47.348;9.640;2023-07-29T08:38:41;4.90;;;4.50;;
5819;SDS011;2936;47.348;9.640;2023-07-29T08:41:10;6.30;;;5.37;;
5819;SDS011;2936;47.348;9.640;2023-07-29T08:43:42;5.30;;;4.80;;
5819;SDS011;2936;47.348;9.640;2023-07-29T08:46:10;6.13;;;5.53;;
5819;SDS011;2936;47.348;9.640;2023-07-29T08:48:39;5.47;;;4.83;;
5819;SDS011;2936;47.348;9.640;2023-07-29T08:51:09;4.93;;;4.53;;
5819;SDS011;2936;47.348;9.640;2023-07-29T08:53:37;4.30;;;4.10;;
5819;SDS011;2936;47.348;9.640;2023-07-29T08:56:04;5.80;;;4.67;;
5819;SDS011;2936;47.348;9.640;2023-07-29T08:58:32;4.93;;;4.43;;
5819;SDS011;2936;47.348;9.640;2023-07-29T09:01:00;4.40;;;4.10;;
5819;SDS011;2936;47.348;9.640;2023-07-29T09:03:27;5.30;;;4.80;;
5819;SDS011;2936;47.348;9.640;2023-07-29T09:05:55;5.90;;;5.10;;
5819;SDS011;2936;47.348;9.640;2023-07-29T09:08:24;4.73;;;4.33;;
5819;SDS011;2936;47.348;9.640;2023-07-29T09:10:52;6.77;;;4.53;;
5819;SDS011;2936;47.348;9.640;2023-07-29T09:13:20;6.30;;;4.37;;
5819;SDS011;2936;47.348;9.640;2023-07-29T09:15:48;7.67;;;4.43;;
5819;SDS011;2936;47.348;9.640;2023-07-29T09:18:16;5.50;;;5.00;;
5819;SDS011;2936;47.348;9.640;2023-07-29T09:20:43;4.40;;;4.10;;
5819;SDS011;2936;47.348;9.640;2023-07-29T09:23:11;4.83;;;4.40;;
5819;SDS011;2936;47.348;9.640;2023-07-29T09:25:39;5.00;;;4.50;;
5819;SDS011;2936;47.348;9.640;2023-07-29T09:28:07;5.73;;;5.10;;
5819;SDS011;2936;47.348;9.640;2023-07-29T09:30:35;7.17;;;4.87;;
5819;SDS011;2936;47.348;9.640;2023-07-29T09:33:03;6.43;;;5.47;;
5819;SDS011;2936;47.348;9.640;2023-07-29T09:35:32;6.43;;;4.90;;
5819;SDS011;2936;47.348;9.640;2023-07-29T09:38:00;6.47;;;4.97;;
5819;SDS011;2936;47.348;9.640;2023-07-29T09:40:27;4.83;;;4.37;;
5819;SDS011;2936;47.348;9.640;2023-07-29T09:42:56;5.23;;;4.83;;
5819;SDS011;2936;47.348;9.640;2023-07-29T09:45:24;5.13;;;4.70;;
5819;SDS011;2936;47.348;9.640;2023-07-29T09:47:52;4.47;;;4.10;;
5819;SDS011;2936;47.348;9.640;2023-07-29T09:50:22;4.80;;;4.40;;
5819;SDS011;2936;47.348;9.640;2023-07-29T09:52:51;5.03;;;4.63;;
5819;SDS011;2936;47.348;9.640;2023-07-29T09:55:18;4.63;;;4.33;;
5819;SDS011;2936;47.348;9.640;2023-07-29T09:57:46;4.80;;;4.50;;
5819;SDS011;2936;47.348;9.640;2023-07-29T10:00:14;6.30;;;5.03;;
5819;SDS011;2936;47.348;9.640;2023-07-29T10:02:42;6.90;;;4.50;;
5819;SDS011;2936;47.348;9.640;2023-07-29T10:05:10;5.43;;;3.97;;
5819;SDS011;2936;47.348;9.640;2023-07-29T10:07:38;5.67;;;5.10;;
5819;SDS011;2936;47.348;9.640;2023-07-29T10:10:06;5.10;;;4.70;;
5819;SDS011;2936;47.348;9.640;2023-07-29T10:12:34;4.63;;;4.13;;
5819;SDS011;2936;47.348;9.640;2023-07-29T10:15:03;5.07;;;4.67;;
5819;SDS011;2936;47.348;9.640;2023-07-29T10:17:33;5.17;;;4.67;;
5819;SDS011;2936;47.348;9.640;2023-07-29T10:20:00;5.33;;;4.93;;
5819;SDS011;2936;47.348;9.640;2023-07-29T10:22:28;5.63;;;5.23;;
5819;SDS011;2936;47.348;9.640;2023-07-29T10:24:56;5.43;;;5.00;;
5819;SDS011;2936;47.348;9.640;2023-07-29T10:27:26;5.40;;;4.87;;
5819;SDS011;2936;47.348;9.640;2023-07-29T10:29:54;7.10;;;6.33;;
5819;SDS011;2936;47.348;9.640;2023-07-29T10:32:22;7.60;;;5.20;;
5819;SDS011;2936;47.348;9.640;2023-07-29T10:34:53;6.70;;;5.40;;
5819;SDS011;2936;47.348;9.640;2023-07-29T10:37:20;5.93;;;5.33;;
5819;SDS011;2936;47.348;9.640;2023-07-29T10:39:54;6.17;;;5.67;;
5819;SDS011;2936;47.348;9.640;2023-07-29T10:42:22;5.03;;;4.63;;
5819;SDS011;2936;47.348;9.640;2023-07-29T10:44:49;5.80;;;5.27;;
5819;SDS011;2936;47.348;9.640;2023-07-29T10:47:18;5.40;;;5.00;;
5819;SDS011;2936;47.348;9.640;2023-07-29T10:49:46;6.00;;;5.40;;
5819;SDS011;2936;47.348;9.640;2023-07-29T10:52:16;5.47;;;4.97;;
5819;SDS011;2936;47.348;9.640;2023-07-29T10:54:43;12.73;;;5.00;;
5819;SDS011;2936;47.348;9.640;2023-07-29T10:57:14;5.63;;;5.13;;
5819;SDS011;2936;47.348;9.640;2023-07-29T10:59:43;9.37;;;5.70;;
5819;SDS011;2936;47.348;9.640;2023-07-29T11:02:20;6.30;;;5.10;;
5819;SDS011;2936;47.348;9.640;2023-07-29T11:04:47;5.17;;;4.77;;
5819;SDS011;2936;47.348;9.640;2023-07-29T11:07:20;5.33;;;4.80;;
5819;SDS011;2936;47.348;9.640;2023-07-29T11:09:58;5.30;;;4.90;;
5819;SDS011;2936;47.348;9.640;2023-07-29T11:12:35;8.23;;;5.10;;
5819;SDS011;2936;47.348;9.640;2023-07-29T11:15:04;8.70;;;4.43;;
5819;SDS011;2936;47.348;9.640;2023-07-29T11:17:32;7.63;;;5.03;;
5819;SDS011;2936;47.348;9.640;2023-07-29T11:20:00;6.10;;;5.50;;
5819;SDS011;2936;47.348;9.640;2023-07-29T11:22:30;5.00;;;4.60;;
5819;SDS011;2936;47.348;9.640;2023-07-29T11:24:57;5.00;;;4.50;;
5819;SDS011;2936;47.348;9.640;2023-07-29T11:27:25;5.10;;;4.70;;
5819;SDS011;2936;47.348;9.640;2023-07-29T11:29:56;7.83;;;5.57;;
5819;SDS011;2936;47.348;9.640;2023-07-29T11:32:23;5.30;;;4.90;;
5819;SDS011;2936;47.348;9.640;2023-07-29T11:34:52;5.10;;;4.80;;
5819;SDS011;2936;47.348;9.640;2023-07-29T11:37:20;6.07;;;5.37;;
5819;SDS011;2936;47.348;9.640;2023-07-29T11:39:48;5.03;;;4.67;;
5819;SDS011;2936;47.348;9.640;2023-07-29T11:42:16;4.77;;;4.47;;
5819;SDS011;2936;47.348;9.640;2023-07-29T11:44:43;5.67;;;5.27;;
5819;SDS011;2936;47.348;9.640;2023-07-29T11:47:11;6.73;;;4.73;;
5819;SDS011;2936;47.348;9.640;2023-07-29T11:49:39;6.03;;;4.90;;
5819;SDS011;2936;47.348;9.640;2023-07-29T11:52:07;4.53;;;4.23;;
5819;SDS011;2936;47.348;9.640;2023-07-29T11:54:34;6.73;;;5.20;;
5819;SDS011;2936;47.348;9.640;2023-07-29T11:57:04;4.70;;;4.30;;
5819;SDS011;2936;47.348;9.640;2023-07-29T11:59:33;5.23;;;4.83;;
5819;SDS011;2936;47.348;9.640;2023-07-29T12:02:01;5.63;;;5.13;;
5819;SDS011;2936;47.348;9.640;2023-07-29T12:04:28;5.20;;;4.70;;
5819;SDS011;2936;47.348;9.640;2023-07-29T12:06:56;4.77;;;4.33;;
5819;SDS011;2936;47.348;9.640;2023-07-29T12:09:24;4.83;;;4.43;;
5819;SDS011;2936;47.348;9.640;2023-07-29T12:11:52;7.83;;;4.67;;
5819;SDS011;2936;47.348;9.640;2023-07-29T12:14:20;7.37;;;4.63;;
5819;SDS011;2936;47.348;9.640;2023-07-29T12:16:48;7.10;;;4.90;;
5819;SDS011;2936;47.348;9.640;2023-07-29T12:19:17;4.80;;;4.50;;
5819;SDS011;2936;47.348;9.640;2023-07-29T12:21:44;4.93;;;4.57;;
5819;SDS011;2936;47.348;9.640;2023-07-29T12:24:12;6.40;;;5.00;;
5819;SDS011;2936;47.348;9.640;2023-07-29T12:26:39;6.70;;;6.00;;
5819;SDS011;2936;47.348;9.640;2023-07-29T12:29:13;6.20;;;5.07;;
5819;SDS011;2936;47.348;9.640;2023-07-29T12:31:42;5.87;;;5.37;;
5819;SDS011;2936;47.348;9.640;2023-07-29T12:34:09;6.47;;;5.87;;
5819;SDS011;2936;47.348;9.640;2023-07-29T12:36:42;7.00;;;5.40;;
5819;SDS011;2936;47.348;9.640;2023-07-29T12:39:16;6.33;;;5.73;;
5819;SDS011;2936;47.348;9.640;2023-07-29T12:41:44;6.50;;;5.77;;
5819;SDS011;2936;47.348;9.640;2023-07-29T12:44:11;7.83;;;5.47;;
5819;SDS011;2936;47.348;9.640;2023-07-29T12:46:39;6.40;;;5.80;;
5819;SDS011;2936;47.348;9.640;2023-07-29T12:49:07;6.00;;;5.40;;
5819;SDS011;2936;47.348;9.640;2023-07-29T12:51:35;7.77;;;6.10;;
5819;SDS011;2936;47.348;9.640;2023-07-29T12:54:02;6.70;;;5.70;;
5819;SDS011;2936;47.348;9.640;2023-07-29T12:56:31;6.40;;;5.80;;
5819;SDS011;2936;47.348;9.640;2023-07-29T12:58:59;6.90;;;6.13;;
5819;SDS011;2936;47.348;9.640;2023-07-29T13:01:27;11.17;;;6.37;;
5819;SDS011;2936;47.348;9.640;2023-07-29T13:03:54;5.90;;;5.00;;
5819;SDS011;2936;47.348;9.640;2023-07-29T13:06:23;13.60;;;5.20;;
5819;SDS011;2936;47.348;9.640;2023-07-29T13:08:51;10.33;;;5.47;;
5819;SDS011;2936;47.348;9.640;2023-07-29T13:11:18;6.67;;;5.03;;
5819;SDS011;2936;47.348;9.640;2023-07-29T13:13:45;5.80;;;5.20;;
5819;SDS011;2936;47.348;9.640;2023-07-29T13:16:12;5.93;;;4.73;;
5819;SDS011;2936;47.348;9.640;2023-07-29T13:18:40;10.10;;;5.13;;
5819;SDS011;2936;47.348;9.640;2023-07-29T13:21:07;7.93;;;5.27;;
5819;SDS011;2936;47.348;9.640;2023-07-29T13:23:36;7.13;;;4.70;;
5819;SDS011;2936;47.348;9.640;2023-07-29T13:26:03;5.93;;;5.37;;
5819;SDS011;2936;47.348;9.640;2023-07-29T13:28:30;6.50;;;5.67;;
5819;SDS011;2936;47.348;9.640;2023-07-29T13:30:58;9.20;;;6.00;;
5819;SDS011;2936;47.348;9.640;2023-07-29T13:33:25;8.13;;;5.57;;
5819;SDS011;2936;47.348;9.640;2023-07-29T13:35:52;14.20;;;5.70;;
5819;SDS011;2936;47.348;9.640;2023-07-29T13:38:21;7.63;;;5.70;;
5819;SDS011;2936;47.348;9.640;2023-07-29T13:40:49;8.87;;;5.70;;
5819;SDS011;2936;47.348;9.640;2023-07-29T13:43:17;5.97;;;5.27;;
5819;SDS011;2936;47.348;9.640;2023-07-29T13:45:44;5.33;;;4.67;;
5819;SDS011;2936;47.348;9.640;2023-07-29T13:48:13;5.60;;;5.10;;
5819;SDS011;2936;47.348;9.640;2023-07-29T13:50:41;6.27;;;5.77;;
5819;SDS011;2936;47.348;9.640;2023-07-29T13:53:09;9.43;;;5.27;;
5819;SDS011;2936;47.348;9.640;2023-07-29T13:55:36;9.33;;;5.07;;
5819;SDS011;2936;47.348;9.640;2023-07-29T13:58:05;13.73;;;7.30;;
5819;SDS011;2936;47.348;9.640;2023-07-29T14:00:32;12.63;;;6.20;;
5819;SDS011;2936;47.348;9.640;2023-07-29T14:02:59;9.00;;;4.87;;
5819;SDS011;2936;47.348;9.640;2023-07-29T14:05:27;5.80;;;4.40;;
5819;SDS011;2936;47.348;9.640;2023-07-29T14:07:54;4.50;;;4.10;;
5819;SDS011;2936;47.348;9.640;2023-07-29T14:10:21;6.10;;;3.83;;
5819;SDS011;2936;47.348;9.640;2023-07-29T14:12:49;6.53;;;4.93;;
5819;SDS011;2936;47.348;9.640;2023-07-29T14:15:17;5.80;;;4.60;;
5819;SDS011;2936;47.348;9.640;2023-07-29T14:17:45;4.60;;;4.27;;
5819;SDS011;2936;47.348;9.640;2023-07-29T14:20:12;8.03;;;5.33;;
5819;SDS011;2936;47.348;9.640;2023-07-29T14:22:40;7.10;;;5.17;;
5819;SDS011;2936;47.348;9.640;2023-07-29T14:25:07;6.83;;;4.77;;
5819;SDS011;2936;47.348;9.640;2023-07-29T14:27:34;5.20;;;4.00;;
5819;SDS011;2936;47.348;9.640;2023-07-29T14:30:02;9.63;;;5.50;;
5819;SDS011;2936;47.348;9.640;2023-07-29T14:32:31;7.27;;;4.10;;
5819;SDS011;2936;47.348;9.640;2023-07-29T14:34:58;4.00;;;3.70;;
5819;SDS011;2936;47.348;9.640;2023-07-29T14:37:28;5.93;;;4.40;;
5819;SDS011;2936;47.348;9.640;2023-07-29T14:39:56;4.33;;;4.00;;
5819;SDS011;2936;47.348;9.640;2023-07-29T14:42:24;10.90;;;4.47;;
5819;SDS011;2936;47.348;9.640;2023-07-29T14:44:51;6.80;;;4.67;;
5819;SDS011;2936;47.348;9.640;2023-07-29T14:47:18;13.67;;;5.60;;
5819;SDS011;2936;47.348;9.640;2023-07-29T14:49:47;7.03;;;5.10;;
5819;SDS011;2936;47.348;9.640;2023-07-29T14:52:14;6.37;;;4.60;;
5819;SDS011;2936;47.348;9.640;2023-07-29T14:54:42;5.10;;;4.60;;
5819;SDS011;2936;47.348;9.640;2023-07-29T14:57:09;5.00;;;4.60;;
5819;SDS011;2936;47.348;9.640;2023-07-29T14:59:37;6.60;;;5.10;;
5819;SDS011;2936;47.348;9.640;2023-07-29T15:02:04;4.83;;;4.13;;
5819;SDS011;2936;47.348;9.640;2023-07-29T15:04:32;4.60;;;4.30;;
5819;SDS011;2936;47.348;9.640;2023-07-29T15:07:01;5.07;;;4.30;;
5819;SDS011;2936;47.348;9.640;2023-07-29T15:09:29;5.27;;;4.77;;
5819;SDS011;2936;47.348;9.640;2023-07-29T15:11:56;6.60;;;4.23;;
5819;SDS011;2936;47.348;9.640;2023-07-29T15:14:23;5.00;;;4.60;;
5819;SDS011;2936;47.348;9.640;2023-07-29T15:16:50;5.40;;;4.90;;
5819;SDS011;2936;47.348;9.640;2023-07-29T15:19:18;5.10;;;4.60;;